sensor_id;sensor_type;location;lat;lon;timestamp;pressure;altitude;pressure_sealevel;temperature;humidity
46476;BME280;53376;51.114;14.738;2022-08-19T00:08:39;97571.13;;;29.70;39.23
46476;BME280;53376;51.114;14.738;2022-08-19T00:11:21;97570.56;;;29.68;39.18
46476;BME280;53376;51.114;14.738;2022-08-19T00:14:02;97569.72;;;29.67;39.25
46476;BME280;53376;51.114;14.738;2022-08-19T00:16:31;97562.00;;;29.64;39.39
46476;BME280;53376;51.114;14.738;2022-08-19T00:19:11;97555.66;;;29.64;38.94
46476;BME280;53376;51.114;14.738;2022-08-19T00:21:39;97554.22;;;29.61;39.29
46476;BME280;53376;51.114;14.738;2022-08-19T00:24:29;97549.00;;;29.59;39.17
46476;BME280;53376;51.114;14.738;2022-08-19T00:36:19;97553.75;;;29.52;39.15
46476;BME280;53376;51.114;14.738;2022-08-19T00:39:00;97553.50;;;29.54;39.21
46476;BME280;53376;51.114;14.738;2022-08-19T00:41:44;97564.94;;;29.51;39.19
46476;BME280;53376;51.114;14.738;2022-08-19T00:44:23;97551.72;;;29.48;39.29
46476;BME280;53376;51.114;14.738;2022-08-19T00:47:05;97557.19;;;29.48;39.19
46476;BME280;53376;51.114;14.738;2022-08-19T00:49:51;97551.97;;;29.46;39.01
46476;BME280;53376;51.114;14.738;2022-08-19T01:03:08;97548.13;;;29.35;39.31
46476;BME280;53376;51.114;14.738;2022-08-19T01:05:52;97547.31;;;29.35;39.35
46476;BME280;53376;51.114;14.738;2022-08-19T01:08:21;97559.06;;;29.35;38.87
46476;BME280;53376;51.114;14.738;2022-08-19T01:11:04;97553.22;;;29.32;39.03
46476;BME280;53376;51.114;14.738;2022-08-19T01:13:37;97568.44;;;29.27;38.85
46476;BME280;53376;51.114;14.738;2022-08-19T01:16:27;97564.38;;;29.18;38.89
46476;BME280;53376;51.114;14.738;2022-08-19T01:29:26;97564.63;;;28.98;39.90
46476;BME280;53376;51.114;14.738;2022-08-19T01:32:12;97558.81;;;28.94;40.21
46476;BME280;53376;51.114;14.738;2022-08-19T01:35:07;97554.63;;;28.92;40.52
46476;BME280;53376;51.114;14.738;2022-08-19T01:37:46;97567.25;;;28.93;40.42
46476;BME280;53376;51.114;14.738;2022-08-19T01:40:31;97569.84;;;28.88;40.49
46476;BME280;53376;51.114;14.738;2022-08-19T01:43:06;97563.19;;;28.84;40.39
46476;BME280;53376;51.114;14.738;2022-08-19T01:45:48;97570.78;;;28.82;40.95
46476;BME280;53376;51.114;14.738;2022-08-19T01:55:37;97591.56;;;28.64;40.82
46476;BME280;53376;51.114;14.738;2022-08-19T01:58:22;97594.16;;;28.59;41.61
46476;BME280;53376;51.114;14.738;2022-08-19T02:01:00;97594.69;;;28.49;42.27
46476;BME280;53376;51.114;14.738;2022-08-19T02:03:40;97599.78;;;28.45;42.26
46476;BME280;53376;51.114;14.738;2022-08-19T02:06:08;97607.84;;;28.40;42.90
46476;BME280;53376;51.114;14.738;2022-08-19T02:08:51;97622.97;;;28.36;43.14
46476;BME280;53376;51.114;14.738;2022-08-19T02:11:33;97621.78;;;28.32;43.56
46476;BME280;53376;51.114;14.738;2022-08-19T02:24:31;97622.81;;;28.12;44.26
46476;BME280;53376;51.114;14.738;2022-08-19T02:27:11;97628.75;;;28.09;44.36
46476;BME280;53376;51.114;14.738;2022-08-19T02:29:39;97625.38;;;28.07;44.47
46476;BME280;53376;51.114;14.738;2022-08-19T02:32:25;97641.16;;;28.05;44.62
46476;BME280;53376;51.114;14.738;2022-08-19T02:34:52;97636.94;;;28.03;44.59
46476;BME280;53376;51.114;14.738;2022-08-19T02:51:44;97629.88;;;27.95;44.62
46476;BME280;53376;51.114;14.738;2022-08-19T02:54:19;97636.41;;;27.94;44.70
46476;BME280;53376;51.114;14.738;2022-08-19T02:57:00;97637.69;;;27.91;45.19
46476;BME280;53376;51.114;14.738;2022-08-19T02:59:29;97636.84;;;27.91;44.58
46476;BME280;53376;51.114;14.738;2022-08-19T03:02:10;97645.63;;;27.93;44.76
46476;BME280;53376;51.114;14.738;2022-08-19T03:04:38;97650.66;;;27.96;44.67
46476;BME280;53376;51.114;14.738;2022-08-19T03:17:50;97653.28;;;27.84;45.36
46476;BME280;53376;51.114;14.738;2022-08-19T03:20:49;97663.78;;;27.80;44.92
46476;BME280;53376;51.114;14.738;2022-08-19T03:23:30;97671.41;;;27.78;45.58
46476;BME280;53376;51.114;14.738;2022-08-19T03:26:13;97677.28;;;27.75;45.54
46476;BME280;53376;51.114;14.738;2022-08-19T03:28:49;97675.00;;;27.72;45.65
46476;BME280;53376;51.114;14.738;2022-08-19T03:31:32;97678.16;;;27.69;45.77
46476;BME280;53376;51.114;14.738;2022-08-19T03:44:50;97695.47;;;27.56;45.98
46476;BME280;53376;51.114;14.738;2022-08-19T03:47:30;97687.50;;;27.55;45.89
46476;BME280;53376;51.114;14.738;2022-08-19T03:50:11;97677.66;;;27.54;46.27
46476;BME280;53376;51.114;14.738;2022-08-19T03:52:39;97680.81;;;27.50;46.16
46476;BME280;53376;51.114;14.738;2022-08-19T03:55:20;97673.69;;;27.49;46.36
46476;BME280;53376;51.114;14.738;2022-08-19T04:11:33;97667.00;;;27.45;46.81
46476;BME280;53376;51.114;14.738;2022-08-19T04:14:20;97663.63;;;27.43;47.00
46476;BME280;53376;51.114;14.738;2022-08-19T04:16:56;97661.97;;;27.42;47.02
46476;BME280;53376;51.114;14.738;2022-08-19T04:19:37;97657.38;;;27.43;46.93
46476;BME280;53376;51.114;14.738;2022-08-19T04:22:05;97650.22;;;27.42;47.05
46476;BME280;53376;51.114;14.738;2022-08-19T04:24:45;97642.28;;;27.40;47.05
46476;BME280;53376;51.114;14.738;2022-08-19T04:37:30;97646.03;;;27.32;47.34
46476;BME280;53376;51.114;14.738;2022-08-19T04:40:11;97645.22;;;27.32;47.50
46476;BME280;53376;51.114;14.738;2022-08-19T04:42:52;97649.00;;;27.31;47.13
46476;BME280;53376;51.114;14.738;2022-08-19T04:45:21;97651.50;;;27.32;47.41
46476;BME280;53376;51.114;14.738;2022-08-19T04:48:12;97654.22;;;27.32;47.41
46476;BME280;53376;51.114;14.738;2022-08-19T04:51:00;97650.69;;;27.32;47.16
46476;BME280;53376;51.114;14.738;2022-08-19T05:04:13;97651.13;;;27.29;47.71
46476;BME280;53376;51.114;14.738;2022-08-19T05:06:54;97648.81;;;27.26;47.75
46476;BME280;53376;51.114;14.738;2022-08-19T05:09:34;97658.06;;;27.25;47.83
46476;BME280;53376;51.114;14.738;2022-08-19T05:12:32;97661.41;;;27.27;47.94
46476;BME280;53376;51.114;14.738;2022-08-19T05:14:59;97663.09;;;27.28;48.00
46476;BME280;53376;51.114;14.738;2022-08-19T05:31:37;97682.13;;;27.41;47.83
46476;BME280;53376;51.114;14.738;2022-08-19T05:34:19;97696.81;;;27.40;48.54
46476;BME280;53376;51.114;14.738;2022-08-19T05:37:02;97715.91;;;27.40;48.22
46476;BME280;53376;51.114;14.738;2022-08-19T05:39:37;97718.66;;;27.40;48.67
46476;BME280;53376;51.114;14.738;2022-08-19T05:42:24;97722.41;;;27.39;48.30
46476;BME280;53376;51.114;14.738;2022-08-19T05:44:52;97715.25;;;27.38;48.05
46476;BME280;53376;51.114;14.738;2022-08-19T05:58:05;97749.69;;;27.32;49.32
46476;BME280;53376;51.114;14.738;2022-08-19T06:00:45;97753.69;;;27.30;49.11
46476;BME280;53376;51.114;14.738;2022-08-19T06:03:13;97753.91;;;27.28;49.38
46476;BME280;53376;51.114;14.738;2022-08-19T06:05:53;97757.69;;;27.27;49.60
46476;BME280;53376;51.114;14.738;2022-08-19T06:08:21;97756.88;;;27.27;49.17
46476;BME280;53376;51.114;14.738;2022-08-19T06:11:15;97763.81;;;27.23;49.68
46476;BME280;53376;51.114;14.738;2022-08-19T06:24:11;97763.63;;;27.11;49.84
46476;BME280;53376;51.114;14.738;2022-08-19T06:26:54;97772.03;;;27.09;50.03
46476;BME280;53376;51.114;14.738;2022-08-19T06:29:38;97783.81;;;27.03;50.25
46476;BME280;53376;51.114;14.738;2022-08-19T06:32:11;97773.94;;;27.02;50.17
46476;BME280;53376;51.114;14.738;2022-08-19T06:34:51;97780.66;;;26.99;50.48
46476;BME280;53376;51.114;14.738;2022-08-19T06:51:00;97785.88;;;27.01;50.77
46476;BME280;53376;51.114;14.738;2022-08-19T06:53:41;97790.28;;;27.02;51.07
46476;BME280;53376;51.114;14.738;2022-08-19T06:56:09;97790.94;;;27.04;51.02
46476;BME280;53376;51.114;14.738;2022-08-19T06:58:50;97802.44;;;27.06;50.87
46476;BME280;53376;51.114;14.738;2022-08-19T07:01:18;97804.13;;;27.07;50.98
46476;BME280;53376;51.114;14.738;2022-08-19T07:03:58;97806.84;;;27.07;51.27
46476;BME280;53376;51.114;14.738;2022-08-19T07:06:29;97821.13;;;27.09;51.21
46476;BME280;53376;51.114;14.738;2022-08-19T07:16:44;97822.78;;;27.10;50.75
46476;BME280;53376;51.114;14.738;2022-08-19T07:19:26;97833.28;;;27.07;50.97
46476;BME280;53376;51.114;14.738;2022-08-19T07:22:10;97838.75;;;27.07;51.12
46476;BME280;53376;51.114;14.738;2022-08-19T07:24:45;97843.34;;;27.06;51.03
46476;BME280;53376;51.114;14.738;2022-08-19T07:27:25;97846.91;;;27.07;51.63
46476;BME280;53376;51.114;14.738;2022-08-19T07:29:53;97862.19;;;27.08;51.24
46476;BME280;53376;51.114;14.738;2022-08-19T07:43:26;97873.31;;;27.06;51.44
46476;BME280;53376;51.114;14.738;2022-08-19T07:46:07;97873.09;;;27.08;51.30
46476;BME280;53376;51.114;14.738;2022-08-19T07:49:03;97870.19;;;27.09;51.23
46476;BME280;53376;51.114;14.738;2022-08-19T07:51:47;97874.78;;;27.09;51.18
46476;BME280;53376;51.114;14.738;2022-08-19T07:54:25;97874.78;;;27.09;51.30
46476;BME280;53376;51.114;14.738;2022-08-19T08:11:02;97870.00;;;27.04;51.57
46476;BME280;53376;51.114;14.738;2022-08-19T08:13:43;97877.31;;;27.03;51.66
46476;BME280;53376;51.114;14.738;2022-08-19T08:16:36;97879.81;;;27.05;51.50
46476;BME280;53376;51.114;14.738;2022-08-19T08:19:22;97886.97;;;27.06;51.29
46476;BME280;53376;51.114;14.738;2022-08-19T08:22:04;97890.31;;;27.08;51.68
46476;BME280;53376;51.114;14.738;2022-08-19T08:24:32;97890.31;;;27.08;51.45
46476;BME280;53376;51.114;14.738;2022-08-19T08:37:47;97914.22;;;27.06;51.67
46476;BME280;53376;51.114;14.738;2022-08-19T08:40:38;97915.25;;;27.05;51.33
46476;BME280;53376;51.114;14.738;2022-08-19T08:43:23;97908.34;;;27.02;51.56
46476;BME280;53376;51.114;14.738;2022-08-19T08:46:10;97910.25;;;27.02;51.24
46476;BME280;53376;51.114;14.738;2022-08-19T08:49:25;97910.03;;;27.03;51.50
46476;BME280;53376;51.114;14.738;2022-08-19T09:06:11;97919.06;;;27.04;51.34
46476;BME280;53376;51.114;14.738;2022-08-19T09:09:00;97929.34;;;27.02;51.34
46476;BME280;53376;51.114;14.738;2022-08-19T09:11:59;97931.03;;;27.03;50.94
46476;BME280;53376;51.114;14.738;2022-08-19T09:14:43;97907.53;;;27.02;51.06
46476;BME280;53376;51.114;14.738;2022-08-19T09:17:29;97908.56;;;27.01;50.90
46476;BME280;53376;51.114;14.738;2022-08-19T09:20:14;97903.75;;;26.96;51.00
46476;BME280;53376;51.114;14.738;2022-08-19T09:30:24;97883.84;;;26.96;51.11
46476;BME280;53376;51.114;14.738;2022-08-19T09:33:06;97883.63;;;26.97;50.93
46476;BME280;53376;51.114;14.738;2022-08-19T09:35:48;97887.19;;;26.98;50.91
46476;BME280;53376;51.114;14.738;2022-08-19T09:38:26;97882.13;;;27.01;51.11
46476;BME280;53376;51.114;14.738;2022-08-19T09:41:09;97874.38;;;27.05;51.19
46476;BME280;53376;51.114;14.738;2022-08-19T09:43:47;97884.44;;;27.11;50.98
46476;BME280;53376;51.114;14.738;2022-08-19T09:46:30;97892.84;;;27.16;51.69
46476;BME280;53376;51.114;14.738;2022-08-19T09:59:12;97925.13;;;27.19;51.15
46476;BME280;53376;51.114;14.738;2022-08-19T10:01:55;97930.56;;;27.19;51.42
46476;BME280;53376;51.114;14.738;2022-08-19T10:04:36;97936.66;;;27.22;50.88
46476;BME280;53376;51.114;14.738;2022-08-19T10:07:04;97941.47;;;27.19;50.82
46476;BME280;53376;51.114;14.738;2022-08-19T10:09:48;97953.22;;;27.20;51.05
46476;BME280;53376;51.114;14.738;2022-08-19T10:25:59;97965.81;;;27.14;51.34
46476;BME280;53376;51.114;14.738;2022-08-19T10:28:39;97965.81;;;27.14;51.42
46476;BME280;53376;51.114;14.738;2022-08-19T10:31:21;97964.13;;;27.13;51.46
46476;BME280;53376;51.114;14.738;2022-08-19T10:34:23;97952.81;;;27.16;51.29
46476;BME280;53376;51.114;14.738;2022-08-19T10:37:02;97955.56;;;27.16;51.55
46476;BME280;53376;51.114;14.738;2022-08-19T10:39:47;97960.78;;;27.18;51.13
46476;BME280;53376;51.114;14.738;2022-08-19T10:52:32;97967.47;;;27.35;51.56
46476;BME280;53376;51.114;14.738;2022-08-19T10:55:24;97965.84;;;27.41;51.78
46476;BME280;53376;51.114;14.738;2022-08-19T10:58:11;97983.44;;;27.45;51.13
46476;BME280;53376;51.114;14.738;2022-08-19T11:00:52;97983.00;;;27.48;51.10
46476;BME280;53376;51.114;14.738;2022-08-19T11:03:37;97982.19;;;27.48;50.94
46476;BME280;53376;51.114;14.738;2022-08-19T11:06:12;97991.19;;;27.48;50.83
46476;BME280;53376;51.114;14.738;2022-08-19T11:18:25;97993.94;;;27.42;50.91
46476;BME280;53376;51.114;14.738;2022-08-19T11:21:07;97992.25;;;27.41;50.99
46476;BME280;53376;51.114;14.738;2022-08-19T11:23:43;97994.75;;;27.42;50.89
46476;BME280;53376;51.114;14.738;2022-08-19T11:26:25;97979.47;;;27.41;50.88
46476;BME280;53376;51.114;14.738;2022-08-19T11:28:54;97992.25;;;27.41;50.91
46476;BME280;53376;51.114;14.738;2022-08-19T11:31:35;97993.94;;;27.42;51.22
46476;BME280;53376;51.114;14.738;2022-08-19T11:44:19;98000.22;;;27.42;51.17
46476;BME280;53376;51.114;14.738;2022-08-19T11:46:59;97999.41;;;27.42;51.01
46476;BME280;53376;51.114;14.738;2022-08-19T11:49:42;97996.44;;;27.43;51.34
46476;BME280;53376;51.114;14.738;2022-08-19T11:52:10;97992.69;;;27.44;51.13
46476;BME280;53376;51.114;14.738;2022-08-19T11:54:52;97996.03;;;27.46;50.88
46476;BME280;53376;51.114;14.738;2022-08-19T11:57:33;97993.91;;;27.48;50.71
46476;BME280;53376;51.114;14.738;2022-08-19T12:00:16;97978.81;;;27.53;50.79
46476;BME280;53376;51.114;14.738;2022-08-19T12:13:07;97983.81;;;27.69;50.70
46476;BME280;53376;51.114;14.738;2022-08-19T12:15:49;97982.31;;;27.73;50.57
46476;BME280;53376;51.114;14.738;2022-08-19T12:18:29;97975.19;;;27.79;50.53
46476;BME280;53376;51.114;14.738;2022-08-19T12:20:57;97972.88;;;27.82;50.47
46476;BME280;53376;51.114;14.738;2022-08-19T12:23:37;97966.53;;;27.89;50.11
46476;BME280;53376;51.114;14.738;2022-08-19T12:26:06;97969.47;;;27.94;50.20
46476;BME280;53376;51.114;14.738;2022-08-19T12:39:20;97977.34;;;28.22;49.52
46476;BME280;53376;51.114;14.738;2022-08-19T12:42:00;97979.44;;;28.27;49.49
46476;BME280;53376;51.114;14.738;2022-08-19T12:44:28;97975.22;;;28.31;49.63
46476;BME280;53376;51.114;14.738;2022-08-19T12:47:12;97980.84;;;28.36;49.63
46476;BME280;53376;51.114;14.738;2022-08-19T12:49:48;97977.25;;;28.42;49.35
46476;BME280;53376;51.114;14.738;2022-08-19T12:52:29;97975.50;;;28.55;49.54
46476;BME280;53376;51.114;14.738;2022-08-19T13:05:15;97985.63;;;29.11;48.19
46476;BME280;53376;51.114;14.738;2022-08-19T13:07:58;97981.19;;;29.17;48.12
46476;BME280;53376;51.114;14.738;2022-08-19T13:10:38;97979.66;;;29.21;47.97
46476;BME280;53376;51.114;14.738;2022-08-19T13:13:08;97971.22;;;29.23;47.40
46476;BME280;53376;51.114;14.738;2022-08-19T13:15:48;97974.59;;;29.25;47.46
46476;BME280;53376;51.114;14.738;2022-08-19T13:18:16;97965.94;;;29.28;47.54
46476;BME280;53376;51.114;14.738;2022-08-19T13:21:02;97969.25;;;29.37;47.38
46476;BME280;53376;51.114;14.738;2022-08-19T13:33:49;97972.78;;;29.63;46.52
46476;BME280;53376;51.114;14.738;2022-08-19T13:36:19;97978.88;;;29.65;46.70
46476;BME280;53376;51.114;14.738;2022-08-19T13:39:00;97975.91;;;29.66;46.76
46476;BME280;53376;51.114;14.738;2022-08-19T13:41:27;97974.25;;;29.65;46.65
46476;BME280;53376;51.114;14.738;2022-08-19T13:44:09;97967.09;;;29.64;46.71
46476;BME280;53376;51.114;14.738;2022-08-19T13:46:36;97976.38;;;29.63;46.47
46476;BME280;53376;51.114;14.738;2022-08-19T13:59:50;97979.69;;;29.47;46.40
46476;BME280;53376;51.114;14.738;2022-08-19T14:02:31;97983.66;;;29.51;46.26
46476;BME280;53376;51.114;14.738;2022-08-19T14:05:11;97984.28;;;29.53;46.19
46476;BME280;53376;51.114;14.738;2022-08-19T14:07:54;97988.22;;;29.57;46.19
46476;BME280;53376;51.114;14.738;2022-08-19T14:10:23;97992.16;;;29.61;46.34
46476;BME280;53376;51.114;14.738;2022-08-19T14:27:00;97968.53;;;29.85;45.74
46476;BME280;53376;51.114;14.738;2022-08-19T14:29:40;97969.53;;;29.91;45.47
46476;BME280;53376;51.114;14.738;2022-08-19T14:32:21;97958.75;;;29.96;45.21
46476;BME280;53376;51.114;14.738;2022-08-19T14:34:49;97947.34;;;29.99;45.06
46476;BME280;53376;51.114;14.738;2022-08-19T14:37:29;97945.59;;;30.05;45.54
46476;BME280;53376;51.114;14.738;2022-08-19T14:39:57;97942.75;;;30.12;45.73
46476;BME280;53376;51.114;14.738;2022-08-19T14:53:16;97953.94;;;30.40;45.20
46476;BME280;53376;51.114;14.738;2022-08-19T14:55:57;97949.69;;;30.45;45.08
46476;BME280;53376;51.114;14.738;2022-08-19T14:58:27;97962.72;;;30.49;45.11
46476;BME280;53376;51.114;14.738;2022-08-19T15:01:12;97967.72;;;30.52;45.05
46476;BME280;53376;51.114;14.738;2022-08-19T15:03:40;97970.84;;;30.56;44.84
46476;BME280;53376;51.114;14.738;2022-08-19T15:06:23;97969.78;;;30.57;44.63
46476;BME280;53376;51.114;14.738;2022-08-19T15:19:07;97983.56;;;30.50;45.04
46476;BME280;53376;51.114;14.738;2022-08-19T15:21:48;97980.00;;;30.50;45.12
46476;BME280;53376;51.114;14.738;2022-08-19T15:24:28;97978.31;;;30.49;44.98
46476;BME280;53376;51.114;14.738;2022-08-19T15:26:56;97972.84;;;30.49;45.06
46476;BME280;53376;51.114;14.738;2022-08-19T15:29:36;97977.91;;;30.45;44.92
46476;BME280;53376;51.114;14.738;2022-08-19T15:32:04;97972.69;;;30.44;45.08
46476;BME280;53376;51.114;14.738;2022-08-19T15:45:23;97973.13;;;30.40;45.56
46476;BME280;53376;51.114;14.738;2022-08-19T15:48:05;97977.09;;;30.45;45.22
46476;BME280;53376;51.114;14.738;2022-08-19T15:50:33;97966.72;;;30.47;45.40
46476;BME280;53376;51.114;14.738;2022-08-19T15:53:15;97970.09;;;30.49;45.14
46476;BME280;53376;51.114;14.738;2022-08-19T15:55:44;97963.97;;;30.47;44.77
46476;BME280;53376;51.114;14.738;2022-08-19T15:58:26;97973.50;;;30.44;45.07
46476;BME280;53376;51.114;14.738;2022-08-19T16:01:06;97975.03;;;30.40;44.81
46476;BME280;53376;51.114;14.738;2022-08-19T16:14:19;97952.38;;;30.02;45.54
46476;BME280;53376;51.114;14.738;2022-08-19T16:17:02;97957.91;;;29.96;45.62
46476;BME280;53376;51.114;14.738;2022-08-19T16:19:36;97950.38;;;29.91;45.69
46476;BME280;53376;51.114;14.738;2022-08-19T16:22:28;97940.31;;;29.85;46.02
46476;BME280;53376;51.114;14.738;2022-08-19T16:25:03;97949.22;;;29.80;45.66
46476;BME280;53376;51.114;14.738;2022-08-19T16:38:29;97956.16;;;29.64;46.13
46476;BME280;53376;51.114;14.738;2022-08-19T16:41:09;97948.13;;;29.63;46.08
46476;BME280;53376;51.114;14.738;2022-08-19T16:43:37;97949.66;;;29.58;46.30
46476;BME280;53376;51.114;14.738;2022-08-19T16:46:18;97956.66;;;29.54;46.23
46476;BME280;53376;51.114;14.738;2022-08-19T16:48:55;97944.94;;;29.47;46.10
46476;BME280;53376;51.114;14.738;2022-08-19T16:51:36;97941.19;;;29.41;46.20
46476;BME280;53376;51.114;14.738;2022-08-19T17:07:45;97961.75;;;29.00;46.69
46476;BME280;53376;51.114;14.738;2022-08-19T17:10:25;97968.75;;;28.96;46.84
46476;BME280;53376;51.114;14.738;2022-08-19T17:12:53;97963.06;;;28.91;46.85
46476;BME280;53376;51.114;14.738;2022-08-19T17:15:35;97962.91;;;28.86;47.17
46476;BME280;53376;51.114;14.738;2022-08-19T17:18:06;97964.84;;;28.78;46.88
46476;BME280;53376;51.114;14.738;2022-08-19T17:20:47;97957.34;;;28.74;47.51
46476;BME280;53376;51.114;14.738;2022-08-19T17:33:31;97976.13;;;28.57;48.01
46476;BME280;53376;51.114;14.738;2022-08-19T17:38:57;97979.97;;;28.49;48.41
46476;BME280;53376;51.114;14.738;2022-08-19T17:41:33;97990.50;;;28.45;48.43
46476;BME280;53376;51.114;14.738;2022-08-19T17:44:13;97989.22;;;28.41;48.13
46476;BME280;53376;51.114;14.738;2022-08-19T17:46:41;97987.38;;;28.35;47.95
46476;BME280;53376;51.114;14.738;2022-08-19T17:59:53;98017.09;;;28.18;48.53
46476;BME280;53376;51.114;14.738;2022-08-19T18:02:44;98030.34;;;28.14;48.29
46476;BME280;53376;51.114;14.738;2022-08-19T18:05:23;98040.00;;;28.10;48.61
46476;BME280;53376;51.114;14.738;2022-08-19T18:08:05;98041.69;;;28.11;48.64
46476;BME280;53376;51.114;14.738;2022-08-19T18:10:32;98065.66;;;28.09;48.54
46476;BME280;53376;51.114;14.738;2022-08-19T18:27:09;98075.75;;;27.89;49.16
46476;BME280;53376;51.114;14.738;2022-08-19T18:29:49;98072.38;;;27.87;48.96
46476;BME280;53376;51.114;14.738;2022-08-19T18:32:31;98073.88;;;27.82;49.13
46476;BME280;53376;51.114;14.738;2022-08-19T18:35:00;98068.22;;;27.77;48.67
46476;BME280;53376;51.114;14.738;2022-08-19T18:37:43;98068.00;;;27.72;49.28
46476;BME280;53376;51.114;14.738;2022-08-19T18:40:15;98070.31;;;27.69;49.27
46476;BME280;53376;51.114;14.738;2022-08-19T18:53:32;98098.44;;;27.56;49.38
46476;BME280;53376;51.114;14.738;2022-08-19T18:56:16;98096.97;;;27.53;49.65
46476;BME280;53376;51.114;14.738;2022-08-19T18:58:53;98102.22;;;27.55;49.70
46476;BME280;53376;51.114;14.738;2022-08-19T19:01:36;98107.88;;;27.53;50.16
46476;BME280;53376;51.114;14.738;2022-08-19T19:04:11;98103.28;;;27.54;50.43
46476;BME280;53376;51.114;14.738;2022-08-19T19:06:53;98104.34;;;27.53;50.82
46476;BME280;53376;51.114;14.738;2022-08-19T19:19:38;98101.78;;;27.51;51.48
46476;BME280;53376;51.114;14.738;2022-08-19T19:22:21;98102.66;;;27.51;51.36
46476;BME280;53376;51.114;14.738;2022-08-19T19:25:05;98097.19;;;27.51;51.24
46476;BME280;53376;51.114;14.738;2022-08-19T19:27:33;98091.72;;;27.51;51.58
46476;BME280;53376;51.114;14.738;2022-08-19T19:30:13;98083.56;;;27.51;51.56
46476;BME280;53376;51.114;14.738;2022-08-19T19:32:41;98063.81;;;27.49;51.36
46476;BME280;53376;51.114;14.738;2022-08-19T19:45:41;98051.00;;;27.43;51.95
46476;BME280;53376;51.114;14.738;2022-08-19T19:48:21;98060.25;;;27.42;52.32
46476;BME280;53376;51.114;14.738;2022-08-19T19:50:49;98065.09;;;27.40;52.10
46476;BME280;53376;51.114;14.738;2022-08-19T19:53:31;98071.56;;;27.39;52.15
46476;BME280;53376;51.114;14.738;2022-08-19T19:55:58;98065.47;;;27.37;52.22
46476;BME280;53376;51.114;14.738;2022-08-19T19:58:39;98075.75;;;27.35;51.90
46476;BME280;53376;51.114;14.738;2022-08-19T20:01:09;98077.84;;;27.33;52.08
46476;BME280;53376;51.114;14.738;2022-08-19T20:14:27;98106.34;;;27.24;52.24
46476;BME280;53376;51.114;14.738;2022-08-19T20:17:14;98119.81;;;27.25;52.42
46476;BME280;53376;51.114;14.738;2022-08-19T20:19:42;98108.25;;;27.23;52.39
46476;BME280;53376;51.114;14.738;2022-08-19T20:22:22;98106.34;;;27.24;52.37
46476;BME280;53376;51.114;14.738;2022-08-19T20:24:51;98096.72;;;27.21;52.55
46476;BME280;53376;51.114;14.738;2022-08-19T20:27:33;98103.84;;;27.22;52.38
46476;BME280;53376;51.114;14.738;2022-08-19T20:40:29;98118.72;;;27.06;52.91
46476;BME280;53376;51.114;14.738;2022-08-19T20:43:11;98125.19;;;27.05;52.95
46476;BME280;53376;51.114;14.738;2022-08-19T20:45:53;98118.09;;;27.04;53.06
46476;BME280;53376;51.114;14.738;2022-08-19T20:48:21;98114.72;;;27.02;53.27
46476;BME280;53376;51.114;14.738;2022-08-19T20:51:01;98119.31;;;27.01;53.13
46476;BME280;53376;51.114;14.738;2022-08-19T21:07:11;98105.28;;;26.98;53.13
46476;BME280;53376;51.114;14.738;2022-08-19T21:09:51;98110.09;;;26.96;53.51
46476;BME280;53376;51.114;14.738;2022-08-19T21:12:19;98110.09;;;26.96;53.41
46476;BME280;53376;51.114;14.738;2022-08-19T21:15:00;98088.28;;;26.96;52.99
46476;BME280;53376;51.114;14.738;2022-08-19T21:17:28;98083.22;;;26.93;53.21
46476;BME280;53376;51.114;14.738;2022-08-19T21:20:09;98086.16;;;26.91;53.69
46476;BME280;53376;51.114;14.738;2022-08-19T21:22:39;98086.38;;;26.90;53.44
46476;BME280;53376;51.114;14.738;2022-08-19T21:32:40;98082.78;;;26.82;53.72
46476;BME280;53376;51.114;14.738;2022-08-19T21:35:26;98093.91;;;26.81;53.55
46476;BME280;53376;51.114;14.738;2022-08-19T21:38:08;98091.41;;;26.79;53.71
46476;BME280;53376;51.114;14.738;2022-08-19T21:40:36;98092.44;;;26.78;53.53
46476;BME280;53376;51.114;14.738;2022-08-19T21:43:16;98093.47;;;26.77;53.74
46476;BME280;53376;51.114;14.738;2022-08-19T21:45:45;98099.97;;;26.76;53.71
46476;BME280;53376;51.114;14.738;2022-08-19T22:01:23;98072.47;;;26.71;53.90
46476;BME280;53376;51.114;14.738;2022-08-19T22:04:03;98071.81;;;26.69;53.91
46476;BME280;53376;51.114;14.738;2022-08-19T22:06:43;98073.94;;;26.67;54.19
46476;BME280;53376;51.114;14.738;2022-08-19T22:09:12;98077.25;;;26.62;53.92
46476;BME280;53376;51.114;14.738;2022-08-19T22:11:52;98078.50;;;26.60;53.84
46476;BME280;53376;51.114;14.738;2022-08-19T22:28:06;98088.47;;;26.39;54.23
46476;BME280;53376;51.114;14.738;2022-08-19T22:31:00;98090.56;;;26.37;54.30
46476;BME280;53376;51.114;14.738;2022-08-19T22:33:29;98092.00;;;26.33;54.37
46476;BME280;53376;51.114;14.738;2022-08-19T22:36:12;98097.66;;;26.31;54.57
46476;BME280;53376;51.114;14.738;2022-08-19T22:38:40;98098.50;;;26.32;54.91
46476;BME280;53376;51.114;14.738;2022-08-19T22:41:20;98093.47;;;26.29;54.35
46476;BME280;53376;51.114;14.738;2022-08-19T22:54:04;98092.16;;;26.18;54.55
46476;BME280;53376;51.114;14.738;2022-08-19T22:56:44;98094.44;;;26.14;54.68
46476;BME280;53376;51.114;14.738;2022-08-19T22:59:25;98079.78;;;26.15;55.53
46476;BME280;53376;51.114;14.738;2022-08-19T23:01:53;98063.22;;;26.17;55.46
46476;BME280;53376;51.114;14.738;2022-08-19T23:04:34;98078.75;;;26.16;55.39
46476;BME280;53376;51.114;14.738;2022-08-19T23:07:03;98086.25;;;26.14;55.35
46476;BME280;53376;51.114;14.738;2022-08-19T23:20:16;98090.34;;;26.03;55.50
46476;BME280;53376;51.114;14.738;2022-08-19T23:23:00;98088.88;;;26.01;55.39
46476;BME280;53376;51.114;14.738;2022-08-19T23:25:37;98096.22;;;26.00;55.38
46476;BME280;53376;51.114;14.738;2022-08-19T23:28:19;98074.63;;;25.99;55.47
46476;BME280;53376;51.114;14.738;2022-08-19T23:30:50;98068.13;;;26.00;55.68